Wetterdaten: Woche 15.02.21 - 21.02.21 (KW7)
Datum Zeit Temp. Aussen Temp. o. S. Temp +5cm Feuchte Auss Luftdruck Regen Sonnenschein Regendauer Solar Windben Empfang
15.02.2021 00:00 0,5 C -0,0 C -3,9 C 60 % 1031,5 hPa 0,0 l/m 0,00 h 0,00 h 0 W/m 2,2 km/h (1 Bft) 98,05 %
15.02.2021 01:00 0,4 C 0,0 C -3,9 C 60 % 1031,0 hPa 0,0 l/m 0,00 h 0,00 h 0 W/m 2,3 km/h (1 Bft) 94,59 %
15.02.2021 02:00 0,5 C 0,0 C -3,8 C 59 % 1030,1 hPa 0,0 l/m 0,00 h 0,00 h 0 W/m 5,0 km/h (1 Bft) 98,08 %
15.02.2021 03:00 0,4 C 0,0 C -3,8 C 59 % 1029,7 hPa 0,0 l/m 0,00 h 0,00 h 0 W/m 3,3 km/h (1 Bft) 98,65 %
15.02.2021 04:00 0,3 C 0,0 C -3,8 C 60 % 1028,8 hPa 0,0 l/m 0,00 h 0,00 h 0 W/m 3,1 km/h (1 Bft) 96,08 %
15.02.2021 05:00 0,4 C 0,0 C -3,8 C 61 % 1028,2 hPa 0,0 l/m 0,00 h 0,00 h 0 W/m 4,7 km/h (1 Bft) 98,14 %
15.02.2021 06:00 0,4 C 0,0 C -3,8 C 62 % 1027,7 hPa 0,0 l/m 0,00 h 0,00 h 0 W/m 4,4 km/h (1 Bft) 97,60 %
15.02.2021 07:00 0,5 C 0,0 C -3,8 C 64 % 1027,1 hPa 0,2 l/m 0,00 h 0,00 h 0 W/m 3,9 km/h (1 Bft) 97,59 %
15.02.2021 08:00 0,6 C 0,2 C -3,6 C 65 % 1026,7 hPa 0,0 l/m 0,00 h 0,00 h 14 W/m 4,2 km/h (1 Bft) 97,08 %
15.02.2021 09:00 0,9 C 0,7 C -3,1 C 67 % 1026,3 hPa 0,0 l/m 0,00 h 0,00 h 44 W/m 2,8 km/h (1 Bft) 96,59 %
15.02.2021 10:00 1,5 C 1,2 C -2,5 C 69 % 1025,7 hPa 0,0 l/m 0,00 h 0,00 h 55 W/m 3,5 km/h (1 Bft) 98,08 %
15.02.2021 11:00 1,8 C 0,7 C -2,9 C 75 % 1025,5 hPa 0,0 l/m 0,00 h 0,40 h 79 W/m 2,1 km/h (1 Bft) 97,86 %
15.02.2021 12:00 1,8 C 0,6 C -3,0 C 82 % 1025,3 hPa 1,2 l/m 0,00 h 0,73 h 64 W/m 3,8 km/h (1 Bft) 97,86 %
15.02.2021 13:00 1,4 C 0,4 C -2,7 C 91 % 1023,9 hPa 0,6 l/m 0,00 h 0,27 h 99 W/m 1,4 km/h (1 Bft) 95,30 %
15.02.2021 14:00 1,8 C 1,2 C -1,8 C 93 % 1023,0 hPa 0,2 l/m 0,00 h 0,17 h 99 W/m 3,8 km/h (1 Bft) 98,44 %
15.02.2021 15:00 2,3 C 1,6 C -1,1 C 93 % 1022,9 hPa 0,2 l/m 0,00 h 0,30 h 74 W/m 1,8 km/h (1 Bft) 99,36 %
15.02.2021 16:00 2,3 C 1,4 C -1,1 C 93 % 1022,9 hPa 0,2 l/m 0,00 h 0,00 h 22 W/m 0,3 km/h (0 Bft) 95,49 %
15.02.2021 17:00 2,3 C 1,5 C -1,1 C 95 % 1023,0 hPa 0,0 l/m 0,00 h 0,07 h 7 W/m 0,3 km/h (0 Bft) 96,89 %
15.02.2021 18:00 2,3 C 1,7 C -0,9 C 96 % 1023,3 hPa 0,0 l/m 0,00 h 0,00 h 0 W/m 0,2 km/h (0 Bft) 95,87 %
15.02.2021 19:00 2,4 C 1,9 C -0,5 C 97 % 1023,5 hPa 0,2 l/m 0,00 h 0,00 h 0 W/m 0,1 km/h (0 Bft) 97,02 %
15.02.2021 20:00 2,6 C 2,3 C -0,5 C 97 % 1023,6 hPa 0,0 l/m 0,00 h 0,00 h 0 W/m 0,0 km/h (0 Bft) 99,50 %
15.02.2021 21:00 2,8 C 2,3 C -0,5 C 98 % 1023,6 hPa 0,0 l/m 0,00 h 0,00 h 0 W/m 0,1 km/h (0 Bft) 97,71 %
15.02.2021 22:00 3,0 C 2,8 C -0,1 C 98 % 1023,6 hPa 0,0 l/m 0,00 h 0,00 h 0 W/m 0,0 km/h (0 Bft) 95,81 %
15.02.2021 23:00 3,2 C 2,8 C 0,1 C 98 % 1023,4 hPa 0,2 l/m 0,00 h 0,00 h 0 W/m 0,0 km/h (0 Bft) 97,51 %
16.02.2021 00:00 3,3 C 2,8 C 0,4 C 98 % 1023,4 hPa 0,0 l/m 0,00 h 0,00 h 0 W/m 0,1 km/h (0 Bft) 96,79 %
16.02.2021 01:00 3,1 C 2,8 C 0,5 C 98 % 1023,0 hPa 0,0 l/m 0,00 h 0,00 h 0 W/m 0,0 km/h (0 Bft) 98,37 %
16.02.2021 02:00 3,6 C 3,3 C 1,3 C 98 % 1022,3 hPa 0,0 l/m 0,00 h 0,00 h 0 W/m 0,0 km/h (0 Bft) 97,84 %
16.02.2021 03:00 4,1 C 3,4 C 1,7 C 99 % 1021,6 hPa 0,0 l/m 0,00 h 0,00 h 0 W/m 0,1 km/h (0 Bft) 97,37 %
16.02.2021 04:00 4,0 C 3,1 C 1,6 C 99 % 1020,9 hPa 0,0 l/m 0,00 h 0,00 h 0 W/m 0,0 km/h (0 Bft) 94,46 %
16.02.2021 05:00 3,7 C 3,3 C 1,7 C 99 % 1020,3 hPa 0,2 l/m 0,00 h 0,00 h 0 W/m 0,4 km/h (0 Bft) 97,88 %
16.02.2021 06:00 3,8 C 3,3 C 1,7 C 99 % 1019,4 hPa 0,0 l/m 0,00 h 0,00 h 0 W/m 0,3 km/h (0 Bft) 98,53 %
16.02.2021 07:00 3,8 C 3,3 C 1,7 C 99 % 1019,0 hPa 0,0 l/m 0,00 h 0,00 h 5 W/m 0,6 km/h (0 Bft) 97,44 %
16.02.2021 08:00 3,8 C 3,4 C 2,0 C 99 % 1018,9 hPa 0,0 l/m 0,00 h 0,00 h 24 W/m 0,4 km/h (0 Bft) 99,00 %
16.02.2021 09:00 4,1 C 4,1 C 2,6 C 100 % 1018,5 hPa 0,0 l/m 0,00 h 0,00 h 48 W/m 0,4 km/h (0 Bft) 97,59 %
16.02.2021 10:00 4,8 C 5,2 C 4,8 C 99 % 1018,0 hPa 0,0 l/m 0,00 h 0,00 h 111 W/m 1,0 km/h (0 Bft) 95,20 %
16.02.2021 11:00 5,5 C 5,9 C 5,7 C 98 % 1017,3 hPa 0,0 l/m 0,00 h 0,00 h 115 W/m 0,4 km/h (0 Bft) 97,20 %
16.02.2021 12:00 6,6 C 8,0 C 8,0 C 94 % 1016,2 hPa 0,0 l/m 0,20 h 0,00 h 197 W/m 1,1 km/h (1 Bft) 97,86 %
16.02.2021 13:00 8,8 C 12,2 C 12,9 C 87 % 1014,8 hPa 0,0 l/m 0,87 h 0,00 h 338 W/m 1,4 km/h (1 Bft) 96,18 %
16.02.2021 14:00 10,1 C 10,8 C 10,2 C 81 % 1013,5 hPa 0,0 l/m 0,33 h 0,00 h 197 W/m 1,6 km/h (1 Bft) 95,02 %
16.02.2021 15:00 10,2 C 10,3 C 9,0 C 81 % 1012,5 hPa 0,0 l/m 0,27 h 0,00 h 134 W/m 0,3 km/h (0 Bft) 99,57 %
16.02.2021 16:00 9,9 C 9,4 C 7,5 C 81 % 1011,7 hPa 0,0 l/m 0,00 h 0,00 h 47 W/m 0,2 km/h (0 Bft) 97,08 %
16.02.2021 17:00 9,4 C 8,6 C 6,6 C 81 % 1011,6 hPa 0,0 l/m 0,00 h 0,00 h 23 W/m 1,3 km/h (1 Bft) 95,79 %
16.02.2021 18:00 8,4 C 7,4 C 5,3 C 83 % 1011,3 hPa 0,0 l/m 0,00 h 0,00 h 0 W/m 0,3 km/h (0 Bft) 98,02 %
16.02.2021 19:00 7,7 C 7,2 C 5,0 C 84 % 1011,2 hPa 0,0 l/m 0,00 h 0,00 h 0 W/m 0,1 km/h (0 Bft) 96,73 %
16.02.2021 20:00 7,6 C 6,7 C 4,7 C 86 % 1011,1 hPa 0,2 l/m 0,00 h 0,37 h 0 W/m 0,2 km/h (0 Bft) 97,71 %
16.02.2021 21:00 8,0 C 6,8 C 5,4 C 92 % 1011,3 hPa 0,2 l/m 0,00 h 0,57 h 0 W/m 1,3 km/h (1 Bft) 97,95 %
16.02.2021 22:00 8,4 C 6,9 C 6,1 C 94 % 1011,9 hPa 0,6 l/m 0,00 h 0,63 h 0 W/m 4,1 km/h (1 Bft) 95,16 %
16.02.2021 23:00 7,8 C 6,7 C 6,1 C 96 % 1012,6 hPa 0,0 l/m 0,00 h 0,10 h 0 W/m 4,1 km/h (1 Bft) 96,29 %
17.02.2021 00:00 7,3 C 6,3 C 6,0 C 95 % 1013,2 hPa 0,0 l/m 0,00 h 0,00 h 0 W/m 1,9 km/h (1 Bft) 97,99 %
17.02.2021 01:00 7,5 C 6,7 C 6,1 C 96 % 1013,7 hPa 0,0 l/m 0,00 h 0,00 h 0 W/m 0,7 km/h (0 Bft) 97,08 %
17.02.2021 02:00 7,8 C 6,9 C 6,7 C 94 % 1014,3 hPa 0,0 l/m 0,00 h 0,00 h 0 W/m 2,7 km/h (1 Bft) 98,30 %
17.02.2021 03:00 7,8 C 7,2 C 6,7 C 93 % 1014,7 hPa 0,0 l/m 0,00 h 0,00 h 0 W/m 4,7 km/h (1 Bft) 98,15 %
17.02.2021 04:00 7,9 C 7,2 C 6,7 C 92 % 1015,0 hPa 0,0 l/m 0,00 h 0,10 h 0 W/m 4,0 km/h (1 Bft) 97,93 %
17.02.2021 05:00 7,9 C 7,1 C 6,6 C 93 % 1015,3 hPa 0,0 l/m 0,00 h 0,03 h 0 W/m 3,1 km/h (1 Bft) 97,58 %
17.02.2021 06:00 7,9 C 7,2 C 6,7 C 93 % 1015,7 hPa 0,0 l/m 0,00 h 0,00 h 0 W/m 0,9 km/h (0 Bft) 95,25 %
17.02.2021 07:00 7,7 C 7,0 C 6,4 C 93 % 1016,1 hPa 0,0 l/m 0,00 h 0,00 h 4 W/m 1,5 km/h (1 Bft) 94,49 %
17.02.2021 08:00 7,6 C 7,3 C 6,7 C 93 % 1016,6 hPa 0,0 l/m 0,00 h 0,00 h 22 W/m 1,1 km/h (0 Bft) 98,35 %
17.02.2021 09:00 8,2 C 8,0 C 7,5 C 92 % 1017,0 hPa 0,0 l/m 0,00 h 0,00 h 64 W/m 2,0 km/h (1 Bft) 97,86 %
17.02.2021 10:00 9,0 C 9,0 C 8,3 C 90 % 1017,3 hPa 0,0 l/m 0,00 h 0,00 h 110 W/m 4,4 km/h (1 Bft) 97,66 %
17.02.2021 11:00 9,9 C 10,0 C 9,0 C 87 % 1017,5 hPa 0,0 l/m 0,03 h 0,00 h 138 W/m 4,4 km/h (1 Bft) 97,44 %
17.02.2021 12:00 10,6 C 10,6 C 9,5 C 84 % 1017,6 hPa 0,0 l/m 0,00 h 0,00 h 177 W/m 4,7 km/h (1 Bft) 96,08 %
17.02.2021 13:00 11,3 C 11,4 C 10,2 C 82 % 1017,5 hPa 0,0 l/m 0,20 h 0,00 h 192 W/m 4,2 km/h (1 Bft) 98,72 %
17.02.2021 14:00 11,7 C 11,8 C 10,4 C 81 % 1017,4 hPa 0,0 l/m 0,20 h 0,00 h 163 W/m 6,3 km/h (2 Bft) 98,93 %
17.02.2021 15:00 11,7 C 11,5 C 9,6 C 80 % 1017,3 hPa 0,0 l/m 0,00 h 0,00 h 106 W/m 2,9 km/h (1 Bft) 94,48 %
17.02.2021 16:00 11,7 C 11,3 C 9,5 C 80 % 1017,2 hPa 0,0 l/m 0,17 h 0,00 h 74 W/m 2,4 km/h (1 Bft) 99,78 %
17.02.2021 17:00 11,5 C 10,9 C 8,7 C 80 % 1017,3 hPa 0,0 l/m 0,17 h 0,00 h 25 W/m 0,5 km/h (0 Bft) 98,72 %
17.02.2021 18:00 11,0 C 10,2 C 8,1 C 81 % 1017,7 hPa 0,0 l/m 0,00 h 0,00 h 0 W/m 0,6 km/h (0 Bft) 96,13 %
17.02.2021 19:00 10,5 C 9,6 C 7,5 C 82 % 1017,7 hPa 0,0 l/m 0,00 h 0,00 h 0 W/m 1,0 km/h (0 Bft) 97,73 %
17.02.2021 20:00 10,1 C 9,4 C 7,3 C 83 % 1017,6 hPa 0,0 l/m 0,00 h 0,00 h 0 W/m 1,0 km/h (0 Bft) 97,44 %
17.02.2021 21:00 9,7 C 8,9 C 7,0 C 83 % 1017,7 hPa 0,0 l/m 0,00 h 0,00 h 0 W/m 0,5 km/h (0 Bft) 97,79 %
17.02.2021 22:00 9,3 C 8,4 C 6,7 C 85 % 1017,7 hPa 0,0 l/m 0,00 h 0,00 h 0 W/m 0,4 km/h (0 Bft) 99,15 %
17.02.2021 23:00 8,6 C 7,6 C 5,7 C 86 % 1017,5 hPa 0,0 l/m 0,00 h 0,00 h 0 W/m 0,5 km/h (0 Bft) 94,38 %
18.02.2021 00:00 7,5 C 6,4 C 4,7 C 88 % 1017,3 hPa 0,0 l/m 0,00 h 0,00 h 0 W/m 0,9 km/h (0 Bft) 98,05 %
18.02.2021 01:00 6,8 C 6,0 C 4,5 C 91 % 1016,9 hPa 0,0 l/m 0,00 h 0,00 h 0 W/m 0,1 km/h (0 Bft) 98,36 %
18.02.2021 02:00 6,2 C 5,3 C 4,0 C 92 % 1016,5 hPa 0,0 l/m 0,00 h 0,00 h 0 W/m 0,4 km/h (0 Bft) 97,65 %
18.02.2021 03:00 5,9 C 5,4 C 4,2 C 93 % 1016,2 hPa 0,0 l/m 0,00 h 0,00 h 0 W/m 1,1 km/h (0 Bft) 98,58 %
18.02.2021 04:00 5,9 C 5,3 C 4,0 C 93 % 1015,6 hPa 0,0 l/m 0,00 h 0,00 h 0 W/m 0,7 km/h (0 Bft) 94,02 %
18.02.2021 05:00 5,4 C 4,8 C 3,6 C 93 % 1014,8 hPa 0,0 l/m 0,00 h 0,00 h 0 W/m 0,7 km/h (0 Bft) 96,64 %
18.02.2021 06:00 5,7 C 5,1 C 4,0 C 93 % 1014,4 hPa 0,0 l/m 0,00 h 0,00 h 0 W/m 0,2 km/h (0 Bft) 98,09 %
18.02.2021 07:00 5,9 C 5,3 C 4,2 C 92 % 1013,9 hPa 0,0 l/m 0,00 h 0,00 h 5 W/m 0,0 km/h (0 Bft) 98,23 %
18.02.2021 08:00 5,9 C 5,6 C 4,4 C 92 % 1013,5 hPa 0,0 l/m 0,00 h 0,00 h 26 W/m 0,0 km/h (0 Bft) 97,79 %
18.02.2021 09:00 6,4 C 6,3 C 5,3 C 90 % 1012,7 hPa 0,0 l/m 0,00 h 0,00 h 70 W/m 0,0 km/h (0 Bft) 96,79 %
18.02.2021 10:00 7,4 C 7,6 C 6,5 C 87 % 1012,0 hPa 0,0 l/m 0,00 h 0,00 h 119 W/m 1,5 km/h (1 Bft) 97,29 %
18.02.2021 11:00 8,6 C 9,3 C 7,8 C 83 % 1011,3 hPa 0,0 l/m 0,20 h 0,00 h 169 W/m 1,9 km/h (1 Bft) 97,66 %
18.02.2021 12:00 9,9 C 10,2 C 8,7 C 78 % 1010,2 hPa 0,0 l/m 0,13 h 0,00 h 185 W/m 3,8 km/h (1 Bft) 97,53 %
18.02.2021 13:00 10,3 C 10,2 C 8,4 C 77 % 1008,9 hPa 0,0 l/m 0,00 h 0,00 h 138 W/m 2,3 km/h (1 Bft) 94,98 %
18.02.2021 14:00 10,4 C 10,2 C 8,1 C 76 % 1007,9 hPa 0,0 l/m 0,00 h 0,00 h 110 W/m 3,6 km/h (1 Bft) 96,82 %
18.02.2021 15:00 9,6 C 7,6 C 5,6 C 82 % 1007,8 hPa 1,4 l/m 0,00 h 0,77 h 24 W/m 3,2 km/h (1 Bft) 98,01 %
18.02.2021 16:00 8,0 C 6,4 C 5,0 C 92 % 1007,6 hPa 0,8 l/m 0,00 h 0,43 h 10 W/m 1,5 km/h (1 Bft) 97,00 %
18.02.2021 17:00 8,1 C 7,1 C 5,4 C 92 % 1006,8 hPa 0,2 l/m 0,00 h 0,17 h 6 W/m 2,9 km/h (1 Bft) 97,15 %
18.02.2021 18:00 8,3 C 6,7 C 5,3 C 90 % 1006,9 hPa 0,0 l/m 0,00 h 0,63 h 0 W/m 1,0 km/h (0 Bft) 96,26 %
18.02.2021 19:00 8,3 C 6,9 C 5,8 C 92 % 1007,5 hPa 0,4 l/m 0,00 h 0,97 h 0 W/m 0,2 km/h (0 Bft) 96,94 %
18.02.2021 20:00 8,8 C 7,4 C 6,5 C 94 % 1008,0 hPa 1,6 l/m 0,00 h 1,00 h 0 W/m 4,4 km/h (1 Bft) 96,99 %
18.02.2021 21:00 7,7 C 6,1 C 5,6 C 93 % 1009,7 hPa 0,0 l/m 0,00 h 0,53 h 0 W/m 1,5 km/h (1 Bft) 99,00 %
18.02.2021 22:00 7,3 C 6,1 C 5,5 C 93 % 1010,8 hPa 0,2 l/m 0,00 h 0,57 h 0 W/m 2,1 km/h (1 Bft) 95,96 %
18.02.2021 23:00 6,7 C 5,9 C 4,8 C 91 % 1012,1 hPa 0,0 l/m 0,00 h 0,00 h 0 W/m 2,9 km/h (1 Bft) 98,43 %
19.02.2021 00:00 6,0 C 5,3 C 4,3 C 92 % 1013,3 hPa 0,0 l/m 0,00 h 0,00 h 0 W/m 0,3 km/h (0 Bft) 91,71 %
19.02.2021 01:00 5,6 C 5,0 C 3,9 C 93 % 1014,1 hPa 0,0 l/m 0,00 h 0,00 h 0 W/m 1,1 km/h (0 Bft) 93,89 %
19.02.2021 02:00 5,3 C 4,6 C 3,9 C 93 % 1014,8 hPa 0,0 l/m 0,00 h 0,00 h 0 W/m 0,1 km/h (0 Bft) 97,61 %
19.02.2021 03:00 5,0 C 4,4 C 3,8 C 93 % 1015,4 hPa 0,0 l/m 0,00 h 0,00 h 0 W/m 0,1 km/h (0 Bft) 98,15 %
19.02.2021 04:00 4,6 C 3,9 C 3,4 C 93 % 1015,9 hPa 0,0 l/m 0,00 h 0,00 h 0 W/m 0,5 km/h (0 Bft) 96,90 %
19.02.2021 05:00 4,3 C 3,9 C 3,4 C 93 % 1016,4 hPa 0,0 l/m 0,00 h 0,00 h 0 W/m 0,3 km/h (0 Bft) 97,91 %
19.02.2021 06:00 4,1 C 3,3 C 3,0 C 94 % 1016,6 hPa 0,0 l/m 0,00 h 0,00 h 0 W/m 0,3 km/h (0 Bft) 98,27 %
19.02.2021 07:00 3,5 C 2,5 C 2,5 C 94 % 1017,0 hPa 0,0 l/m 0,00 h 0,00 h 7 W/m 0,1 km/h (0 Bft) 95,09 %
19.02.2021 08:00 2,9 C 2,4 C 2,5 C 95 % 1017,4 hPa 0,0 l/m 0,00 h 0,00 h 23 W/m 0,0 km/h (0 Bft) 97,07 %
19.02.2021 09:00 3,6 C 3,8 C 3,8 C 96 % 1017,8 hPa 0,0 l/m 0,00 h 0,00 h 40 W/m 0,0 km/h (0 Bft) 94,42 %
19.02.2021 10:00 5,2 C 5,7 C 5,4 C 94 % 1018,0 hPa 0,0 l/m 0,00 h 0,00 h 32 W/m 0,6 km/h (0 Bft) 96,52 %
19.02.2021 11:00 7,6 C 9,7 C 8,1 C 89 % 1018,0 hPa 0,0 l/m 0,33 h 0,00 h 209 W/m 1,2 km/h (1 Bft) 98,93 %
19.02.2021 12:00 10,5 C 14,7 C 15,9 C 79 % 1017,6 hPa 0,0 l/m 1,00 h 0,00 h 462 W/m 2,3 km/h (1 Bft) 95,73 %
19.02.2021 13:00 11,8 C 14,0 C 14,7 C 71 % 1017,0 hPa 0,0 l/m 0,97 h 0,00 h 379 W/m 3,8 km/h (1 Bft) 97,22 %
19.02.2021 14:00 11,9 C 12,9 C 12,4 C 69 % 1016,7 hPa 0,0 l/m 0,97 h 0,00 h 294 W/m 3,0 km/h (1 Bft) 97,83 %
19.02.2021 15:00 11,8 C 12,3 C 11,2 C 70 % 1016,6 hPa 0,0 l/m 0,90 h 0,00 h 211 W/m 3,5 km/h (1 Bft) 97,61 %
19.02.2021 16:00 11,4 C 11,4 C 9,3 C 71 % 1016,4 hPa 0,0 l/m 0,90 h 0,00 h 121 W/m 1,5 km/h (1 Bft) 97,22 %
19.02.2021 17:00 10,6 C 9,6 C 7,0 C 74 % 1015,9 hPa 0,0 l/m 0,00 h 0,00 h 24 W/m 0,7 km/h (0 Bft) 97,53 %
19.02.2021 18:00 9,5 C 8,6 C 6,0 C 79 % 1015,8 hPa 0,0 l/m 0,00 h 0,00 h 0 W/m 1,4 km/h (1 Bft) 98,27 %
19.02.2021 19:00 8,9 C 8,1 C 5,6 C 82 % 1015,9 hPa 0,0 l/m 0,00 h 0,00 h 0 W/m 1,3 km/h (1 Bft) 94,47 %
19.02.2021 20:00 8,6 C 7,8 C 5,6 C 84 % 1015,8 hPa 0,0 l/m 0,00 h 0,00 h 0 W/m 0,7 km/h (0 Bft) 97,37 %
19.02.2021 21:00 8,4 C 7,8 C 5,6 C 85 % 1015,8 hPa 0,0 l/m 0,00 h 0,00 h 0 W/m 1,1 km/h (0 Bft) 98,15 %
19.02.2021 22:00 8,4 C 7,8 C 5,8 C 85 % 1015,7 hPa 0,0 l/m 0,00 h 0,00 h 0 W/m 1,8 km/h (1 Bft) 98,95 %
19.02.2021 23:00 8,1 C 7,4 C 5,4 C 86 % 1015,5 hPa 0,0 l/m 0,00 h 0,00 h 0 W/m 0,6 km/h (0 Bft) 94,78 %
20.02.2021 00:00 7,7 C 7,0 C 5,1 C 87 % 1015,4 hPa 0,0 l/m 0,00 h 0,00 h 0 W/m 0,8 km/h (0 Bft) 96,44 %
20.02.2021 01:00 7,6 C 7,0 C 5,3 C 89 % 1015,1 hPa 0,0 l/m 0,00 h 0,00 h 0 W/m 0,0 km/h (0 Bft) 98,86 %
20.02.2021 02:00 7,8 C 7,2 C 5,6 C 89 % 1014,9 hPa 0,0 l/m 0,00 h 0,00 h 0 W/m 0,0 km/h (0 Bft) 95,54 %
20.02.2021 03:00 7,7 C 7,0 C 5,6 C 90 % 1014,7 hPa 0,0 l/m 0,00 h 0,00 h 0 W/m 0,0 km/h (0 Bft) 98,65 %
20.02.2021 04:00 7,3 C 6,7 C 5,2 C 92 % 1014,5 hPa 0,0 l/m 0,00 h 0,00 h 0 W/m 0,0 km/h (0 Bft) 96,09 %
20.02.2021 05:00 7,0 C 6,3 C 5,0 C 93 % 1014,6 hPa 0,0 l/m 0,00 h 0,00 h 0 W/m 0,0 km/h (0 Bft) 96,44 %
20.02.2021 06:00 7,1 C 6,5 C 5,4 C 94 % 1014,4 hPa 0,0 l/m 0,00 h 0,00 h 0 W/m 0,2 km/h (0 Bft) 97,87 %
20.02.2021 07:00 7,4 C 7,0 C 5,9 C 93 % 1014,7 hPa 0,0 l/m 0,00 h 0,00 h 6 W/m 0,9 km/h (0 Bft) 97,65 %
20.02.2021 08:00 7,6 C 7,2 C 6,1 C 92 % 1015,1 hPa 0,0 l/m 0,00 h 0,00 h 22 W/m 1,0 km/h (0 Bft) 97,94 %
20.02.2021 09:00 8,3 C 8,2 C 7,1 C 91 % 1014,9 hPa 0,0 l/m 0,00 h 0,00 h 36 W/m 2,0 km/h (1 Bft) 94,98 %
20.02.2021 10:00 9,9 C 9,9 C 8,5 C 87 % 1014,6 hPa 0,0 l/m 0,00 h 0,00 h 49 W/m 1,9 km/h (1 Bft) 95,37 %
20.02.2021 11:00 11,6 C 13,1 C 10,3 C 82 % 1014,7 hPa 0,0 l/m 0,40 h 0,00 h 203 W/m 4,3 km/h (1 Bft) 98,79 %
20.02.2021 12:00 13,9 C 18,1 C 18,2 C 77 % 1014,2 hPa 0,0 l/m 1,00 h 0,00 h 474 W/m 4,6 km/h (1 Bft) 97,57 %
20.02.2021 13:00 15,7 C 18,9 C 19,1 C 72 % 1013,7 hPa 0,0 l/m 1,00 h 0,00 h 446 W/m 8,6 km/h (2 Bft) 98,72 %
20.02.2021 14:00 16,5 C 18,6 C 18,0 C 69 % 1013,0 hPa 0,0 l/m 0,87 h 0,00 h 343 W/m 5,6 km/h (1 Bft) 97,47 %
20.02.2021 15:00 17,2 C 18,7 C 17,8 C 64 % 1012,8 hPa 0,0 l/m 1,00 h 0,00 h 286 W/m 8,7 km/h (2 Bft) 96,36 %
20.02.2021 16:00 16,6 C 16,7 C 14,6 C 65 % 1012,5 hPa 0,0 l/m 0,80 h 0,00 h 124 W/m 6,1 km/h (2 Bft) 99,50 %
20.02.2021 17:00 15,3 C 14,4 C 11,7 C 69 % 1012,4 hPa 0,0 l/m 0,67 h 0,00 h 37 W/m 2,5 km/h (1 Bft) 97,01 %
20.02.2021 18:00 13,9 C 12,9 C 10,0 C 72 % 1012,3 hPa 0,0 l/m 0,00 h 0,00 h 0 W/m 1,5 km/h (1 Bft) 97,54 %
20.02.2021 19:00 13,1 C 12,3 C 9,2 C 75 % 1012,6 hPa 0,0 l/m 0,00 h 0,00 h 0 W/m 1,3 km/h (1 Bft) 97,26 %
20.02.2021 20:00 12,5 C 11,6 C 8,8 C 76 % 1012,7 hPa 0,0 l/m 0,00 h 0,00 h 0 W/m 1,1 km/h (0 Bft) 95,94 %
20.02.2021 21:00 11,8 C 11,0 C 8,4 C 78 % 1012,6 hPa 0,0 l/m 0,00 h 0,00 h 0 W/m 1,5 km/h (1 Bft) 98,30 %
20.02.2021 22:00 11,5 C 10,8 C 8,3 C 79 % 1012,4 hPa 0,0 l/m 0,00 h 0,00 h 0 W/m 1,3 km/h (1 Bft) 98,06 %
20.02.2021 23:00 11,0 C 10,2 C 7,7 C 80 % 1012,6 hPa 0,0 l/m 0,00 h 0,00 h 0 W/m 0,7 km/h (0 Bft) 95,17 %
21.02.2021 00:00 10,3 C 9,1 C 6,5 C 81 % 1013,2 hPa 0,0 l/m 0,00 h 0,00 h 0 W/m 0,3 km/h (0 Bft) 99,44 %
21.02.2021 01:00 9,4 C 8,6 C 6,2 C 83 % 1013,4 hPa 0,0 l/m 0,00 h 0,00 h 0 W/m 0,1 km/h (0 Bft) 97,72 %
21.02.2021 02:00 9,4 C 8,9 C 6,7 C 82 % 1013,5 hPa 0,0 l/m 0,00 h 0,00 h 0 W/m 1,1 km/h (0 Bft) 96,97 %
21.02.2021 03:00 9,4 C 8,7 C 6,5 C 82 % 1013,4 hPa 0,0 l/m 0,00 h 0,00 h 0 W/m 0,9 km/h (0 Bft) 96,08 %
21.02.2021 04:00 9,3 C 8,4 C 6,3 C 82 % 1013,6 hPa 0,0 l/m 0,00 h 0,00 h 0 W/m 0,6 km/h (0 Bft) 96,08 %
21.02.2021 05:00 9,0 C 8,3 C 6,1 C 82 % 1013,9 hPa 0,0 l/m 0,00 h 0,00 h 0 W/m 0,7 km/h (0 Bft) 98,64 %
21.02.2021 06:00 8,9 C 8,0 C 6,0 C 82 % 1014,0 hPa 0,0 l/m 0,00 h 0,00 h 0 W/m 0,7 km/h (0 Bft) 97,90 %
21.02.2021 07:00 8,4 C 7,8 C 5,6 C 83 % 1014,4 hPa 0,0 l/m 0,00 h 0,00 h 9 W/m 0,4 km/h (0 Bft) 96,37 %
21.02.2021 08:00 8,5 C 8,2 C 6,1 C 83 % 1014,8 hPa 0,0 l/m 0,00 h 0,00 h 26 W/m 0,6 km/h (0 Bft) 95,02 %
21.02.2021 09:00 9,9 C 10,0 C 7,7 C 80 % 1014,9 hPa 0,0 l/m 0,00 h 0,00 h 35 W/m 0,9 km/h (0 Bft) 98,43 %
21.02.2021 10:00 11,6 C 11,6 C 9,1 C 75 % 1015,2 hPa 0,0 l/m 0,00 h 0,00 h 32 W/m 1,2 km/h (1 Bft) 96,20 %
21.02.2021 11:00 13,3 C 15,0 C 11,0 C 71 % 1015,2 hPa 0,0 l/m 0,40 h 0,00 h 219 W/m 2,2 km/h (1 Bft) 96,01 %
21.02.2021 12:00 15,9 C 20,9 C 21,1 C 64 % 1015,1 hPa 0,0 l/m 1,00 h 0,00 h 518 W/m 2,4 km/h (1 Bft) 97,77 %
21.02.2021 13:00 17,5 C 22,1 C 22,9 C 60 % 1014,6 hPa 0,0 l/m 1,00 h 0,00 h 522 W/m 1,5 km/h (1 Bft) 98,72 %
21.02.2021 14:00 18,2 C 22,1 C 23,1 C 58 % 1014,4 hPa 0,0 l/m 1,00 h 0,00 h 470 W/m 2,5 km/h (1 Bft) 98,23 %
21.02.2021 15:00 18,8 C 21,9 C 22,7 C 55 % 1014,1 hPa 0,0 l/m 1,00 h 0,00 h 369 W/m 0,8 km/h (0 Bft) 97,05 %
21.02.2021 16:00 18,7 C 20,2 C 19,5 C 56 % 1013,8 hPa 0,0 l/m 1,00 h 0,00 h 213 W/m 0,0 km/h (0 Bft) 97,72 %
21.02.2021 17:00 16,9 C 16,0 C 13,1 C 57 % 1013,6 hPa 0,0 l/m 0,17 h 0,00 h 29 W/m 1,9 km/h (1 Bft) 97,01 %
21.02.2021 18:00 15,3 C 14,0 C 11,2 C 59 % 1013,8 hPa 0,0 l/m 0,00 h 0,00 h 0 W/m 1,0 km/h (0 Bft) 97,96 %
21.02.2021 19:00 13,9 C 11,9 C 8,7 C 62 % 1014,3 hPa 0,0 l/m 0,00 h 0,00 h 0 W/m 0,0 km/h (0 Bft) 99,00 %
21.02.2021 20:00 12,6 C 11,9 C 8,6 C 63 % 1014,6 hPa 0,0 l/m 0,00 h 0,00 h 0 W/m 0,9 km/h (0 Bft) 95,93 %
21.02.2021 21:00 12,3 C 11,6 C 8,3 C 63 % 1014,8 hPa 0,0 l/m 0,00 h 0,00 h 0 W/m 0,6 km/h (0 Bft) 96,45 %
21.02.2021 22:00 11,5 C 10,2 C 7,0 C 65 % 1015,1 hPa 0,0 l/m 0,00 h 0,00 h 0 W/m 0,3 km/h (0 Bft) 99,82 %
21.02.2021 23:00 10,8 C 10,1 C 6,8 C 68 % 1015,3 hPa 0,0 l/m 0,00 h 0,00 h 0 W/m 0,2 km/h (0 Bft) 96,65 %
Min-Datum _ 15.02.21 15.02.21 15.02.21 21.02.21 18.02.21 - - - - 15.02.21 19.02.21
_ Min-Zeit 01:08 00:58 00:52 15:48 17:12 - - - - 00:04 00:02
Minimum _ 0,3 C -0,6 C -4,4 C 54 % 1006,7 hPa - - - - 0,0 km/h (0 Bft) 5,56 %
Max-Datum _ 21.02.21 21.02.21 21.02.21 16.02.21 15.02.21 18.02.21 19.02.21 18.02.21 21.02.21 17.02.21 15.02.21
_ Max-Zeit 16:04 13:30 13:18 08:58 00:00 20:36 12:08 20:31 13:10 03:28 00:00
Maximum _ 19,1 C 23,3 C 23,9 C 100 % 1031,9 hPa 1,6 l/m 0,07 h 0,08 h 530 W/m 48,3 km/h
S-SO (6 Bft)
100,00 %
Durchschnitt _ 7,9 C 7,7 C 6,0 C 84 % 1016,4 hPa #8,8 l/m #19:08 h #8:48 h 132 W/m 1,6 km/h (1 Bft) 97,20 %
© 2021 W. Hausmann